Casco Township, Michigan
Current Conditions -  °F | °C
As of 9:36 AM on Wednesday 22 Oct 2014 (Local Time) from KPHN Reporting Station
Broken Clouds Broken Clouds  
Wind Chill: 41°   Ceiling: 2100
Heat Index: 46°   Visibility: 10mi
Dew Point: 39°   Wind: 12mph
Humidity: 76%   Direction: 360°N
Pressure: 30.32"   Gusts: 17mph
Location:  42.7668°N, 82.6735°W
Report Text: KPHN 221336Z AUTO 36010G15KT 10SM BKN021 08/04 A3032 RMK AO2
Loading
Personal Weather Stations






























Interactive Weather Map
Tropical Storm Tracking
New forecast layout! Learn more

10-Day Weather Forecast

Advertisements
Track Severe Weather on mobile